createdAt,value
2018-08-03T00:01:48.783Z,23.00
2018-08-03T00:06:59.538Z,22.80
2018-08-03T00:12:03.135Z,22.70
2018-08-03T00:17:10.550Z,22.50
2018-08-03T00:22:14.118Z,22.20
2018-08-03T00:27:17.673Z,22.40
2018-08-03T00:32:21.304Z,22.40
2018-08-03T00:37:24.889Z,22.30
2018-08-03T00:47:33.136Z,22.20
2018-08-03T00:52:38.757Z,22.10
2018-08-03T00:57:42.406Z,22.40
2018-08-03T01:02:45.946Z,22.00
2018-08-03T01:07:49.459Z,22.20
2018-08-03T01:12:58.727Z,21.90
2018-08-03T01:18:02.619Z,21.70
2018-08-03T01:23:06.242Z,21.60
2018-08-03T01:28:09.825Z,21.60
2018-08-03T01:33:13.879Z,21.60
2018-08-03T01:43:21.240Z,21.70
2018-08-03T01:48:24.861Z,21.60
2018-08-03T01:53:28.508Z,21.40
2018-08-03T01:58:32.171Z,21.30
2018-08-03T02:03:36.119Z,21.30
2018-08-03T02:08:39.730Z,21.50
2018-08-03T02:13:43.718Z,21.60
2018-08-03T02:18:47.246Z,21.30
2018-08-03T02:23:50.783Z,21.30
2018-08-03T02:28:54.390Z,21.20
2018-08-03T02:33:58.422Z,21.00
2018-08-03T02:44:16.418Z,20.90
2018-08-03T02:49:20.144Z,20.80
2018-08-03T02:54:23.683Z,21.00
2018-08-03T02:59:27.396Z,21.30
2018-08-03T03:04:31.429Z,21.30
2018-08-03T03:09:34.974Z,21.60
2018-08-03T03:14:38.555Z,21.60
2018-08-03T03:19:42.265Z,20.90
2018-08-03T03:24:45.966Z,20.60
2018-08-03T03:29:51.525Z,20.50
2018-08-03T03:34:55.092Z,20.50
2018-08-03T03:39:58.753Z,20.50
2018-08-03T03:45:02.379Z,20.40
2018-08-03T03:50:06.905Z,20.30
2018-08-03T03:55:10.510Z,20.20
2018-08-03T04:00:14.022Z,20.10
2018-08-03T04:05:24.790Z,20.20
2018-08-03T04:10:28.442Z,20.30
2018-08-03T04:15:32.053Z,20.20
2018-08-03T04:20:35.639Z,20.40
2018-08-03T04:25:39.216Z,20.10
2018-08-03T04:30:43.834Z,20.20
2018-08-03T04:35:47.453Z,20.00
2018-08-03T04:40:52.063Z,20.10
2018-08-03T04:45:55.632Z,20.40
2018-08-03T04:50:59.431Z,20.50
2018-08-03T04:56:03.143Z,20.40
2018-08-03T05:01:10.446Z,20.60
2018-08-03T05:06:14.070Z,20.60
2018-08-03T05:11:17.670Z,20.40
2018-08-03T05:16:21.349Z,20.50
2018-08-03T05:21:25.425Z,20.50
2018-08-03T05:26:28.974Z,20.60
2018-08-03T05:31:32.595Z,20.70
2018-08-03T05:36:36.234Z,20.90
2018-08-03T05:41:40.381Z,21.10
2018-08-03T05:46:43.973Z,21.40
2018-08-03T05:51:48.071Z,21.70
2018-08-03T05:56:51.738Z,21.80
2018-08-03T06:01:55.440Z,22.00
2018-08-03T06:06:59.182Z,22.00
2018-08-03T06:12:02.722Z,22.10
2018-08-03T06:17:06.377Z,22.40
2018-08-03T06:22:11.082Z,22.50
2018-08-03T06:27:14.699Z,22.70
2018-08-03T06:32:19.265Z,23.00
2018-08-03T06:37:24.655Z,23.10
2018-08-03T06:42:33.257Z,23.70
2018-08-03T06:47:36.870Z,25.80
2018-08-03T06:52:40.853Z,28.30
2018-08-03T06:57:44.458Z,29.10
2018-08-03T07:02:48.220Z,29.20
2018-08-03T07:07:52.013Z,30.80
2018-08-03T07:12:55.938Z,31.60
2018-08-03T07:17:59.507Z,32.90
2018-08-03T07:23:04.166Z,33.50
2018-08-03T07:28:07.794Z,34.10
2018-08-03T07:33:11.405Z,34.00
2018-08-03T07:38:17.102Z,34.50
2018-08-03T07:43:20.776Z,34.60
2018-08-03T07:48:24.415Z,35.20
2018-08-03T07:53:28.935Z,33.90
2018-08-03T07:58:32.504Z,33.20
2018-08-03T08:03:37.077Z,34.00
2018-08-03T08:08:40.690Z,34.50
2018-08-03T08:13:44.333Z,34.30
2018-08-03T08:18:47.951Z,34.50
2018-08-03T08:23:51.603Z,34.50
2018-08-03T08:28:55.298Z,35.30
2018-08-03T08:34:00.019Z,35.60
2018-08-03T08:39:04.301Z,35.50
2018-08-03T08:44:07.901Z,34.80
2018-08-03T08:49:11.520Z,36.10
2018-08-03T08:54:15.075Z,35.70
2018-08-03T08:59:22.274Z,34.70
2018-08-03T09:04:25.825Z,35.00
2018-08-03T09:09:31.551Z,36.00
2018-08-03T09:14:35.092Z,35.70
2018-08-03T09:19:38.889Z,36.00
2018-08-03T09:24:42.479Z,36.10
2018-08-03T09:29:52.751Z,36.90
2018-08-03T09:34:56.387Z,37.40
2018-08-03T09:40:00.954Z,36.90
2018-08-03T09:45:04.845Z,36.90
2018-08-03T09:50:08.530Z,36.30
2018-08-03T09:55:14.269Z,36.60
2018-08-03T10:00:25.244Z,36.60
2018-08-03T10:05:28.902Z,36.50
2018-08-03T10:10:32.546Z,36.50
2018-08-03T10:15:36.291Z,36.70
2018-08-03T10:20:40.936Z,37.10
2018-08-03T10:25:45.638Z,37.50
2018-08-03T10:30:53.009Z,37.70
2018-08-03T10:35:56.725Z,36.70
2018-08-03T10:41:00.505Z,36.80
2018-08-03T10:46:06.478Z,36.80
2018-08-03T10:51:10.385Z,37.00
2018-08-03T10:56:14.157Z,37.20
2018-08-03T11:01:17.891Z,36.30
2018-08-03T11:06:21.513Z,35.40
2018-08-03T11:11:25.086Z,34.50
2018-08-03T11:16:28.771Z,34.50
2018-08-03T11:21:32.434Z,34.20
2018-08-03T11:26:42.525Z,36.00
2018-08-03T11:31:46.538Z,36.10
2018-08-03T11:36:50.350Z,36.20
2018-08-03T11:41:54.374Z,36.40
2018-08-03T11:46:58.001Z,36.80
2018-08-03T11:52:02.101Z,36.40
2018-08-03T11:57:06.023Z,35.80
2018-08-03T12:02:09.714Z,36.10
2018-08-03T12:07:13.666Z,36.40
2018-08-03T12:12:17.328Z,36.10
2018-08-03T12:17:20.977Z,35.70
2018-08-03T12:22:24.704Z,35.90
2018-08-03T12:27:29.294Z,36.10
2018-08-03T12:32:33.274Z,35.60
2018-08-03T12:37:40.193Z,35.60
2018-08-03T12:42:45.138Z,35.10
2018-08-03T12:47:53.573Z,34.60
2018-08-03T12:52:57.377Z,34.70
2018-08-03T12:58:01.335Z,35.20
2018-08-03T13:03:05.342Z,33.80
2018-08-03T13:08:09.273Z,33.20
2018-08-03T13:13:13.077Z,32.60
2018-08-03T13:18:16.685Z,32.90
2018-08-03T13:23:24.154Z,33.40
2018-08-03T13:28:27.727Z,33.30
2018-08-03T13:33:34.662Z,33.40
2018-08-03T13:38:38.254Z,33.30
2018-08-03T13:43:42.924Z,33.10
2018-08-03T13:48:47.827Z,33.20
2018-08-03T13:53:51.470Z,32.60
2018-08-03T13:58:55.261Z,32.60
2018-08-03T14:03:58.836Z,32.80
2018-08-03T14:09:02.437Z,33.20
2018-08-03T14:14:05.997Z,33.80
2018-08-03T14:19:09.636Z,33.80
2018-08-03T14:24:21.060Z,33.80
2018-08-03T14:29:24.663Z,32.50
2018-08-03T14:34:28.286Z,32.30
2018-08-03T14:39:31.982Z,32.60
2018-08-03T14:44:35.529Z,33.00
2018-08-03T14:49:39.430Z,32.80
2018-08-03T14:54:43.061Z,32.90
2018-08-03T14:59:46.650Z,32.80
2018-08-03T15:04:58.091Z,33.00
2018-08-03T15:10:01.654Z,33.00
2018-08-03T15:15:05.797Z,33.50
2018-08-03T15:20:10.437Z,33.30
2018-08-03T15:25:14.618Z,33.40
2018-08-03T15:30:18.338Z,33.40
2018-08-03T15:35:23.000Z,33.60
2018-08-03T15:40:27.747Z,33.30
2018-08-03T15:45:31.641Z,33.30
2018-08-03T15:50:35.437Z,32.70
2018-08-03T15:55:52.694Z,32.60
2018-08-03T16:00:56.943Z,32.40
2018-08-03T16:06:00.673Z,32.20
2018-08-03T16:11:04.282Z,32.10
2018-08-03T16:16:08.352Z,31.60
2018-08-03T16:21:11.950Z,32.80
2018-08-03T16:26:15.739Z,32.70
2018-08-03T16:31:19.458Z,32.10
2018-08-03T16:36:23.138Z,31.80
2018-08-03T16:41:27.545Z,32.50
2018-08-03T16:46:31.420Z,32.70
2018-08-03T16:51:35.503Z,32.90
2018-08-03T16:56:39.198Z,32.80
2018-08-03T17:01:43.943Z,32.30
2018-08-03T17:06:49.566Z,31.70
2018-08-03T17:11:53.314Z,31.20
2018-08-03T17:16:56.945Z,30.60
2018-08-03T17:22:05.206Z,30.40
2018-08-03T17:27:12.178Z,30.20
2018-08-03T17:32:17.498Z,30.10
2018-08-03T17:37:21.184Z,30.30
2018-08-03T17:42:24.894Z,30.60
2018-08-03T17:47:28.601Z,30.70
2018-08-03T17:52:33.386Z,30.80
2018-08-03T17:57:38.969Z,30.80
2018-08-03T18:02:42.792Z,30.80
2018-08-03T18:07:48.768Z,30.80
2018-08-03T18:12:53.538Z,30.80
2018-08-03T18:17:57.335Z,30.70
2018-08-03T18:23:04.301Z,30.60
2018-08-03T18:28:08.138Z,30.40
2018-08-03T18:33:13.289Z,30.30
2018-08-03T18:38:16.922Z,30.20
2018-08-03T18:43:21.579Z,30.30
2018-08-03T18:48:25.135Z,30.20
2018-08-03T18:53:30.858Z,30.00
2018-08-03T18:58:34.490Z,29.80
2018-08-03T19:03:43.507Z,29.70
2018-08-03T19:08:47.105Z,29.50
2018-08-03T19:13:50.722Z,29.50
2018-08-03T19:18:54.223Z,29.50
2018-08-03T19:23:58.041Z,29.30
2018-08-03T19:29:01.590Z,29.20
2018-08-03T19:34:07.184Z,29.00
2018-08-03T19:39:11.756Z,28.90
2018-08-03T19:44:15.341Z,28.70
2018-08-03T19:49:19.027Z,28.70
2018-08-03T19:54:22.651Z,28.50
2018-08-03T19:59:26.241Z,28.30
2018-08-03T20:04:29.990Z,28.10
2018-08-03T20:09:33.570Z,28.00
2018-08-03T20:14:37.220Z,28.00
2018-08-03T20:19:40.822Z,27.90
2018-08-03T20:24:44.727Z,27.80
2018-08-03T20:29:48.366Z,27.70
2018-08-03T20:34:52.556Z,27.60
2018-08-03T20:39:57.234Z,27.70
2018-08-03T20:45:01.074Z,27.80
2018-08-03T20:50:04.661Z,27.90
2018-08-03T20:55:08.323Z,27.90
2018-08-03T21:00:12.070Z,27.70
2018-08-03T21:05:15.721Z,27.70
2018-08-03T21:10:19.311Z,27.60
2018-08-03T21:15:22.833Z,27.50
2018-08-03T21:20:26.417Z,27.30
2018-08-03T21:25:30.262Z,27.30
2018-08-03T21:30:33.903Z,27.20
2018-08-03T21:35:37.487Z,27.10
2018-08-03T21:41:00.055Z,27.00
2018-08-03T21:46:03.570Z,26.80
2018-08-03T21:51:07.418Z,26.70
2018-08-03T21:56:10.936Z,26.70
2018-08-03T22:01:14.518Z,26.50
2018-08-03T22:06:18.154Z,26.20
2018-08-03T22:11:35.397Z,26.10
2018-08-03T22:16:39.305Z,25.90
2018-08-03T22:21:43.078Z,25.70
2018-08-03T22:26:46.672Z,25.60
2018-08-03T22:31:50.763Z,25.50
2018-08-03T22:36:54.405Z,25.40
2018-08-03T22:41:59.162Z,25.30
2018-08-03T22:47:02.721Z,25.40
2018-08-03T22:52:06.380Z,25.00
2018-08-03T22:57:09.974Z,25.00
2018-08-03T23:02:18.461Z,25.00
2018-08-03T23:07:22.154Z,25.00
2018-08-03T23:12:25.761Z,24.80
2018-08-03T23:17:29.362Z,24.80
2018-08-03T23:22:33.003Z,24.60
2018-08-03T23:27:36.611Z,24.50
2018-08-03T23:32:40.790Z,24.40
2018-08-03T23:37:44.374Z,24.60
2018-08-03T23:42:47.922Z,24.50
2018-08-03T23:47:51.504Z,24.60
2018-08-03T23:52:55.106Z,24.20
2018-08-03T23:57:58.646Z,24.00
